sensor_id;sensor_type;location;lat;lon;timestamp;P1;durP1;ratioP1;P2;durP2;ratioP2
61638;SDS011;47544;52.484;4.658;2023-09-30T00:00:06;8.30;;;2.03;;
61638;SDS011;47544;52.484;4.658;2023-09-30T00:00:19;7.60;;;1.83;;
61638;SDS011;47544;52.484;4.658;2023-09-30T00:00:30;6.75;;;1.70;;
61638;SDS011;47544;52.484;4.658;2023-09-30T00:00:43;5.70;;;1.55;;
61638;SDS011;47544;52.484;4.658;2023-09-30T00:00:54;6.18;;;1.65;;
61638;SDS011;47544;52.484;4.658;2023-09-30T00:01:08;7.95;;;1.80;;
61638;SDS011;47544;52.484;4.658;2023-09-30T00:01:20;7.72;;;1.90;;
61638;SDS011;47544;52.484;4.658;2023-09-30T00:01:31;8.32;;;2.00;;
61638;SDS011;47544;52.484;4.658;2023-09-30T00:01:42;8.75;;;2.17;;
61638;SDS011;47544;52.484;4.658;2023-09-30T00:01:54;8.27;;;1.98;;
61638;SDS011;47544;52.484;4.658;2023-09-30T00:02:05;7.60;;;1.90;;
61638;SDS011;47544;52.484;4.658;2023-09-30T00:02:16;7.35;;;1.98;;
61638;SDS011;47544;52.484;4.658;2023-09-30T00:02:28;8.18;;;1.90;;
61638;SDS011;47544;52.484;4.658;2023-09-30T00:02:40;8.50;;;2.13;;
61638;SDS011;47544;52.484;4.658;2023-09-30T00:02:51;8.80;;;2.30;;
61638;SDS011;47544;52.484;4.658;2023-09-30T00:03:03;8.05;;;2.17;;
61638;SDS011;47544;52.484;4.658;2023-09-30T00:03:15;8.18;;;2.25;;
61638;SDS011;47544;52.484;4.658;2023-09-30T00:03:26;7.75;;;2.08;;
61638;SDS011;47544;52.484;4.658;2023-09-30T00:03:37;6.95;;;2.20;;
61638;SDS011;47544;52.484;4.658;2023-09-30T00:03:48;7.50;;;2.17;;
61638;SDS011;47544;52.484;4.658;2023-09-30T00:03:59;8.55;;;2.40;;
61638;SDS011;47544;52.484;4.658;2023-09-30T00:04:11;8.18;;;2.10;;
61638;SDS011;47544;52.484;4.658;2023-09-30T00:04:22;8.27;;;2.10;;
61638;SDS011;47544;52.484;4.658;2023-09-30T00:04:33;9.52;;;1.98;;
61638;SDS011;47544;52.484;4.658;2023-09-30T00:04:45;9.43;;;2.00;;
61638;SDS011;47544;52.484;4.658;2023-09-30T00:04:56;9.20;;;1.90;;
61638;SDS011;47544;52.484;4.658;2023-09-30T00:05:07;8.23;;;1.95;;
61638;SDS011;47544;52.484;4.658;2023-09-30T00:05:20;9.05;;;2.00;;
61638;SDS011;47544;52.484;4.658;2023-09-30T00:05:31;8.10;;;1.98;;
61638;SDS011;47544;52.484;4.658;2023-09-30T00:05:42;8.45;;;1.92;;
61638;SDS011;47544;52.484;4.658;2023-09-30T00:05:53;7.55;;;1.83;;
61638;SDS011;47544;52.484;4.658;2023-09-30T00:06:06;7.70;;;1.95;;
61638;SDS011;47544;52.484;4.658;2023-09-30T00:06:17;8.82;;;2.03;;
61638;SDS011;47544;52.484;4.658;2023-09-30T00:06:28;9.43;;;1.90;;
61638;SDS011;47544;52.484;4.658;2023-09-30T00:06:39;8.32;;;1.80;;
61638;SDS011;47544;52.484;4.658;2023-09-30T00:06:51;8.50;;;1.90;;
61638;SDS011;47544;52.484;4.658;2023-09-30T00:07:02;8.13;;;2.10;;
61638;SDS011;47544;52.484;4.658;2023-09-30T00:07:13;8.32;;;2.15;;
61638;SDS011;47544;52.484;4.658;2023-09-30T00:07:24;7.60;;;2.10;;
61638;SDS011;47544;52.484;4.658;2023-09-30T00:07:37;7.35;;;1.88;;
61638;SDS011;47544;52.484;4.658;2023-09-30T00:07:48;7.55;;;1.85;;
61638;SDS011;47544;52.484;4.658;2023-09-30T00:07:59;7.68;;;2.05;;
61638;SDS011;47544;52.484;4.658;2023-09-30T00:08:10;7.85;;;2.30;;
61638;SDS011;47544;52.484;4.658;2023-09-30T00:08:21;6.45;;;2.05;;
61638;SDS011;47544;52.484;4.658;2023-09-30T00:08:32;6.40;;;1.80;;
61638;SDS011;47544;52.484;4.658;2023-09-30T00:08:44;5.30;;;1.70;;
61638;SDS011;47544;52.484;4.658;2023-09-30T00:08:56;7.15;;;1.90;;
61638;SDS011;47544;52.484;4.658;2023-09-30T00:09:08;7.32;;;1.90;;
61638;SDS011;47544;52.484;4.658;2023-09-30T00:09:19;7.68;;;1.85;;
61638;SDS011;47544;52.484;4.658;2023-09-30T00:09:30;6.40;;;1.80;;
61638;SDS011;47544;52.484;4.658;2023-09-30T00:09:41;8.00;;;1.77;;
61638;SDS011;47544;52.484;4.658;2023-09-30T00:09:53;7.85;;;1.80;;
61638;SDS011;47544;52.484;4.658;2023-09-30T00:10:04;8.27;;;1.70;;
61638;SDS011;47544;52.484;4.658;2023-09-30T00:10:15;6.72;;;1.77;;
61638;SDS011;47544;52.484;4.658;2023-09-30T00:10:26;7.65;;;2.10;;
61638;SDS011;47544;52.484;4.658;2023-09-30T00:10:37;7.38;;;2.20;;
61638;SDS011;47544;52.484;4.658;2023-09-30T00:10:49;8.15;;;2.08;;
61638;SDS011;47544;52.484;4.658;2023-09-30T00:11:00;8.60;;;2.00;;
61638;SDS011;47544;52.484;4.658;2023-09-30T00:11:11;8.25;;;2.05;;
61638;SDS011;47544;52.484;4.658;2023-09-30T00:11:22;7.57;;;2.00;;
61638;SDS011;47544;52.484;4.658;2023-09-30T00:11:33;6.57;;;2.10;;
61638;SDS011;47544;52.484;4.658;2023-09-30T00:11:44;6.85;;;2.00;;
61638;SDS011;47544;52.484;4.658;2023-09-30T00:11:55;8.02;;;1.88;;
61638;SDS011;47544;52.484;4.658;2023-09-30T00:12:08;9.02;;;1.90;;
61638;SDS011;47544;52.484;4.658;2023-09-30T00:12:20;8.25;;;1.95;;
61638;SDS011;47544;52.484;4.658;2023-09-30T00:12:31;8.00;;;2.08;;
61638;SDS011;47544;52.484;4.658;2023-09-30T00:12:42;7.40;;;1.90;;
61638;SDS011;47544;52.484;4.658;2023-09-30T00:12:54;6.95;;;1.73;;
61638;SDS011;47544;52.484;4.658;2023-09-30T00:13:05;6.20;;;1.85;;
61638;SDS011;47544;52.484;4.658;2023-09-30T00:13:17;7.85;;;2.33;;
61638;SDS011;47544;52.484;4.658;2023-09-30T00:13:28;8.32;;;2.30;;
61638;SDS011;47544;52.484;4.658;2023-09-30T00:13:39;8.60;;;2.42;;
61638;SDS011;47544;52.484;4.658;2023-09-30T00:13:50;8.10;;;2.33;;
61638;SDS011;47544;52.484;4.658;2023-09-30T00:14:01;7.28;;;2.13;;
61638;SDS011;47544;52.484;4.658;2023-09-30T00:14:12;7.13;;;2.00;;
61638;SDS011;47544;52.484;4.658;2023-09-30T00:14:25;6.45;;;1.92;;
61638;SDS011;47544;52.484;4.658;2023-09-30T00:14:36;6.60;;;1.90;;
61638;SDS011;47544;52.484;4.658;2023-09-30T00:14:48;7.78;;;1.90;;
61638;SDS011;47544;52.484;4.658;2023-09-30T00:14:59;8.10;;;1.98;;
61638;SDS011;47544;52.484;4.658;2023-09-30T00:15:10;8.23;;;2.03;;
61638;SDS011;47544;52.484;4.658;2023-09-30T00:15:21;6.93;;;2.00;;
61638;SDS011;47544;52.484;4.658;2023-09-30T00:15:32;6.03;;;2.03;;
61638;SDS011;47544;52.484;4.658;2023-09-30T00:15:43;6.22;;;2.10;;
61638;SDS011;47544;52.484;4.658;2023-09-30T00:15:54;6.03;;;2.05;;
61638;SDS011;47544;52.484;4.658;2023-09-30T00:16:05;6.95;;;1.95;;
61638;SDS011;47544;52.484;4.658;2023-09-30T00:16:16;8.18;;;2.03;;
61638;SDS011;47544;52.484;4.658;2023-09-30T00:16:29;8.32;;;2.00;;
61638;SDS011;47544;52.484;4.658;2023-09-30T00:16:40;8.57;;;2.00;;
61638;SDS011;47544;52.484;4.658;2023-09-30T00:16:51;6.82;;;1.80;;
61638;SDS011;47544;52.484;4.658;2023-09-30T00:17:05;7.25;;;2.08;;
61638;SDS011;47544;52.484;4.658;2023-09-30T00:17:17;6.75;;;2.00;;
61638;SDS011;47544;52.484;4.658;2023-09-30T00:17:28;8.00;;;2.08;;
61638;SDS011;47544;52.484;4.658;2023-09-30T00:17:41;8.45;;;2.15;;
61638;SDS011;47544;52.484;4.658;2023-09-30T00:17:52;8.32;;;2.33;;
61638;SDS011;47544;52.484;4.658;2023-09-30T00:18:03;7.10;;;2.25;;
61638;SDS011;47544;52.484;4.658;2023-09-30T00:18:16;7.10;;;2.03;;
61638;SDS011;47544;52.484;4.658;2023-09-30T00:18:30;6.63;;;1.70;;
61638;SDS011;47544;52.484;4.658;2023-09-30T00:18:41;5.85;;;1.48;;
61638;SDS011;47544;52.484;4.658;2023-09-30T00:18:52;5.82;;;1.70;;
61638;SDS011;47544;52.484;4.658;2023-09-30T00:19:04;5.40;;;1.70;;
61638;SDS011;47544;52.484;4.658;2023-09-30T00:19:15;5.93;;;1.80;;
61638;SDS011;47544;52.484;4.658;2023-09-30T00:19:26;5.65;;;1.75;;
61638;SDS011;47544;52.484;4.658;2023-09-30T00:19:37;6.15;;;1.80;;
61638;SDS011;47544;52.484;4.658;2023-09-30T00:19:48;6.72;;;1.83;;
61638;SDS011;47544;52.484;4.658;2023-09-30T00:20:00;6.60;;;1.90;;
61638;SDS011;47544;52.484;4.658;2023-09-30T00:20:11;7.43;;;2.25;;
61638;SDS011;47544;52.484;4.658;2023-09-30T00:20:25;8.07;;;2.20;;
61638;SDS011;47544;52.484;4.658;2023-09-30T00:20:36;8.40;;;2.00;;
61638;SDS011;47544;52.484;4.658;2023-09-30T00:20:47;7.53;;;2.00;;
61638;SDS011;47544;52.484;4.658;2023-09-30T00:20:58;7.55;;;2.08;;
61638;SDS011;47544;52.484;4.658;2023-09-30T00:21:10;7.28;;;2.10;;
61638;SDS011;47544;52.484;4.658;2023-09-30T00:21:22;7.85;;;2.10;;
61638;SDS011;47544;52.484;4.658;2023-09-30T00:21:33;8.15;;;2.03;;
61638;SDS011;47544;52.484;4.658;2023-09-30T00:21:45;8.27;;;2.03;;
61638;SDS011;47544;52.484;4.658;2023-09-30T00:21:58;8.93;;;2.15;;
61638;SDS011;47544;52.484;4.658;2023-09-30T00:22:10;8.98;;;2.10;;
61638;SDS011;47544;52.484;4.658;2023-09-30T00:22:21;8.73;;;2.10;;
61638;SDS011;47544;52.484;4.658;2023-09-30T00:22:32;7.40;;;2.03;;
61638;SDS011;47544;52.484;4.658;2023-09-30T00:22:44;7.82;;;2.25;;
61638;SDS011;47544;52.484;4.658;2023-09-30T00:22:55;9.18;;;2.17;;
61638;SDS011;47544;52.484;4.658;2023-09-30T00:23:06;9.13;;;2.00;;
61638;SDS011;47544;52.484;4.658;2023-09-30T00:23:17;8.05;;;1.88;;
61638;SDS011;47544;52.484;4.658;2023-09-30T00:23:29;8.85;;;2.20;;
61638;SDS011;47544;52.484;4.658;2023-09-30T00:23:40;8.45;;;2.00;;
61638;SDS011;47544;52.484;4.658;2023-09-30T00:23:51;6.18;;;1.70;;
61638;SDS011;47544;52.484;4.658;2023-09-30T00:24:03;6.43;;;2.00;;
61638;SDS011;47544;52.484;4.658;2023-09-30T00:24:15;6.82;;;2.00;;
61638;SDS011;47544;52.484;4.658;2023-09-30T00:24:26;8.00;;;2.05;;
61638;SDS011;47544;52.484;4.658;2023-09-30T00:24:37;8.13;;;1.98;;
61638;SDS011;47544;52.484;4.658;2023-09-30T00:24:48;8.35;;;2.10;;
61638;SDS011;47544;52.484;4.658;2023-09-30T00:25:00;6.88;;;2.08;;
61638;SDS011;47544;52.484;4.658;2023-09-30T00:25:11;8.50;;;2.30;;
61638;SDS011;47544;52.484;4.658;2023-09-30T00:25:22;8.70;;;2.42;;
61638;SDS011;47544;52.484;4.658;2023-09-30T00:25:34;8.50;;;2.38;;
61638;SDS011;47544;52.484;4.658;2023-09-30T00:25:45;7.00;;;2.10;;
61638;SDS011;47544;52.484;4.658;2023-09-30T00:25:57;7.07;;;2.10;;
61638;SDS011;47544;52.484;4.658;2023-09-30T00:26:08;7.97;;;2.00;;
61638;SDS011;47544;52.484;4.658;2023-09-30T00:26:19;7.03;;;1.88;;
61638;SDS011;47544;52.484;4.658;2023-09-30T00:26:31;5.70;;;1.60;;
61638;SDS011;47544;52.484;4.658;2023-09-30T00:26:43;7.63;;;1.75;;
61638;SDS011;47544;52.484;4.658;2023-09-30T00:26:54;9.02;;;1.98;;
61638;SDS011;47544;52.484;4.658;2023-09-30T00:27:04;10.93;;;2.20;;
61638;SDS011;47544;52.484;4.658;2023-09-30T00:27:16;8.73;;;2.00;;
61638;SDS011;47544;52.484;4.658;2023-09-30T00:27:28;7.88;;;1.90;;
61638;SDS011;47544;52.484;4.658;2023-09-30T00:27:39;6.35;;;1.73;;
61638;SDS011;47544;52.484;4.658;2023-09-30T00:27:50;6.97;;;1.80;;
61638;SDS011;47544;52.484;4.658;2023-09-30T00:28:04;6.93;;;1.75;;
61638;SDS011;47544;52.484;4.658;2023-09-30T00:28:15;7.15;;;2.00;;
61638;SDS011;47544;52.484;4.658;2023-09-30T00:28:26;6.93;;;2.00;;
61638;SDS011;47544;52.484;4.658;2023-09-30T00:28:39;7.88;;;1.98;;
61638;SDS011;47544;52.484;4.658;2023-09-30T00:28:50;8.02;;;1.92;;
61638;SDS011;47544;52.484;4.658;2023-09-30T00:29:05;6.63;;;1.80;;
61638;SDS011;47544;52.484;4.658;2023-09-30T00:29:16;6.32;;;1.80;;
61638;SDS011;47544;52.484;4.658;2023-09-30T00:29:26;6.68;;;1.90;;
61638;SDS011;47544;52.484;4.658;2023-09-30T00:29:41;7.55;;;2.03;;
61638;SDS011;47544;52.484;4.658;2023-09-30T00:29:52;8.27;;;2.00;;
61638;SDS011;47544;52.484;4.658;2023-09-30T00:30:03;8.43;;;2.03;;
61638;SDS011;47544;52.484;4.658;2023-09-30T00:30:15;7.60;;;2.05;;
61638;SDS011;47544;52.484;4.658;2023-09-30T00:30:26;7.35;;;2.10;;
61638;SDS011;47544;52.484;4.658;2023-09-30T00:30:37;7.65;;;2.00;;
61638;SDS011;47544;52.484;4.658;2023-09-30T00:30:49;6.93;;;1.90;;
61638;SDS011;47544;52.484;4.658;2023-09-30T00:31:05;6.18;;;1.90;;
61638;SDS011;47544;52.484;4.658;2023-09-30T00:31:22;7.18;;;2.10;;
61638;SDS011;47544;52.484;4.658;2023-09-30T00:31:33;6.75;;;1.98;;
61638;SDS011;47544;52.484;4.658;2023-09-30T00:31:44;6.40;;;1.70;;
61638;SDS011;47544;52.484;4.658;2023-09-30T00:31:55;6.55;;;1.65;;
61638;SDS011;47544;52.484;4.658;2023-09-30T00:32:06;7.95;;;1.95;;
61638;SDS011;47544;52.484;4.658;2023-09-30T00:32:17;8.77;;;2.08;;
61638;SDS011;47544;52.484;4.658;2023-09-30T00:32:28;9.27;;;2.20;;
61638;SDS011;47544;52.484;4.658;2023-09-30T00:32:41;8.70;;;2.13;;
61638;SDS011;47544;52.484;4.658;2023-09-30T00:32:52;8.20;;;2.13;;
61638;SDS011;47544;52.484;4.658;2023-09-30T00:33:03;8.25;;;2.10;;
61638;SDS011;47544;52.484;4.658;2023-09-30T00:33:15;7.80;;;2.00;;
61638;SDS011;47544;52.484;4.658;2023-09-30T00:33:26;8.50;;;1.98;;
61638;SDS011;47544;52.484;4.658;2023-09-30T00:33:40;7.63;;;1.73;;
61638;SDS011;47544;52.484;4.658;2023-09-30T00:33:51;6.60;;;1.75;;
61638;SDS011;47544;52.484;4.658;2023-09-30T00:34:02;6.93;;;1.70;;
61638;SDS011;47544;52.484;4.658;2023-09-30T00:34:13;7.40;;;1.70;;
61638;SDS011;47544;52.484;4.658;2023-09-30T00:34:24;7.03;;;1.52;;
61638;SDS011;47544;52.484;4.658;2023-09-30T00:34:35;5.68;;;1.60;;
61638;SDS011;47544;52.484;4.658;2023-09-30T00:34:48;4.45;;;1.50;;
61638;SDS011;47544;52.484;4.658;2023-09-30T00:35:00;4.28;;;1.40;;
61638;SDS011;47544;52.484;4.658;2023-09-30T00:35:12;4.55;;;1.50;;
61638;SDS011;47544;52.484;4.658;2023-09-30T00:35:23;6.28;;;1.80;;
61638;SDS011;47544;52.484;4.658;2023-09-30T00:35:34;6.43;;;1.90;;
61638;SDS011;47544;52.484;4.658;2023-09-30T00:35:45;6.60;;;2.10;;
61638;SDS011;47544;52.484;4.658;2023-09-30T00:35:56;6.63;;;2.10;;
61638;SDS011;47544;52.484;4.658;2023-09-30T00:36:08;7.07;;;2.08;;
61638;SDS011;47544;52.484;4.658;2023-09-30T00:36:20;6.47;;;1.90;;
61638;SDS011;47544;52.484;4.658;2023-09-30T00:36:31;6.18;;;1.73;;
61638;SDS011;47544;52.484;4.658;2023-09-30T00:36:43;5.60;;;1.65;;
61638;SDS011;47544;52.484;4.658;2023-09-30T00:36:56;5.55;;;1.70;;
61638;SDS011;47544;52.484;4.658;2023-09-30T00:37:07;6.32;;;1.70;;
61638;SDS011;47544;52.484;4.658;2023-09-30T00:37:19;6.10;;;1.58;;
61638;SDS011;47544;52.484;4.658;2023-09-30T00:37:30;7.38;;;1.70;;
61638;SDS011;47544;52.484;4.658;2023-09-30T00:37:41;7.35;;;1.67;;
61638;SDS011;47544;52.484;4.658;2023-09-30T00:37:52;7.10;;;1.70;;
61638;SDS011;47544;52.484;4.658;2023-09-30T00:38:03;6.82;;;1.80;;
61638;SDS011;47544;52.484;4.658;2023-09-30T00:38:16;5.93;;;1.80;;
61638;SDS011;47544;52.484;4.658;2023-09-30T00:38:27;7.03;;;1.88;;
61638;SDS011;47544;52.484;4.658;2023-09-30T00:38:38;7.45;;;1.92;;
61638;SDS011;47544;52.484;4.658;2023-09-30T00:38:50;10.35;;;1.98;;
61638;SDS011;47544;52.484;4.658;2023-09-30T00:39:03;9.88;;;1.90;;
61638;SDS011;47544;52.484;4.658;2023-09-30T00:39:14;8.02;;;1.80;;
61638;SDS011;47544;52.484;4.658;2023-09-30T00:39:25;7.43;;;1.80;;
61638;SDS011;47544;52.484;4.658;2023-09-30T00:39:40;8.10;;;1.98;;
61638;SDS011;47544;52.484;4.658;2023-09-30T00:39:51;7.50;;;1.85;;
61638;SDS011;47544;52.484;4.658;2023-09-30T00:40:02;7.22;;;1.80;;
61638;SDS011;47544;52.484;4.658;2023-09-30T00:40:14;7.38;;;1.88;;
61638;SDS011;47544;52.484;4.658;2023-09-30T00:40:25;8.18;;;2.28;;
61638;SDS011;47544;52.484;4.658;2023-09-30T00:40:37;8.52;;;2.45;;
61638;SDS011;47544;52.484;4.658;2023-09-30T00:40:48;7.30;;;2.22;;
61638;SDS011;47544;52.484;4.658;2023-09-30T00:41:01;7.57;;;2.05;;
61638;SDS011;47544;52.484;4.658;2023-09-30T00:41:12;7.57;;;1.90;;
61638;SDS011;47544;52.484;4.658;2023-09-30T00:41:23;7.55;;;1.90;;
61638;SDS011;47544;52.484;4.658;2023-09-30T00:41:34;7.40;;;1.83;;
61638;SDS011;47544;52.484;4.658;2023-09-30T00:41:45;7.28;;;1.85;;
61638;SDS011;47544;52.484;4.658;2023-09-30T00:41:56;7.65;;;1.80;;
61638;SDS011;47544;52.484;4.658;2023-09-30T00:42:09;7.75;;;1.70;;
61638;SDS011;47544;52.484;4.658;2023-09-30T00:42:21;7.30;;;1.60;;
61638;SDS011;47544;52.484;4.658;2023-09-30T00:42:32;6.10;;;1.50;;
61638;SDS011;47544;52.484;4.658;2023-09-30T00:42:43;7.07;;;1.65;;
61638;SDS011;47544;52.484;4.658;2023-09-30T00:42:54;8.15;;;1.83;;
61638;SDS011;47544;52.484;4.658;2023-09-30T00:43:06;8.27;;;1.80;;
61638;SDS011;47544;52.484;4.658;2023-09-30T00:43:17;6.80;;;1.70;;
61638;SDS011;47544;52.484;4.658;2023-09-30T00:43:29;7.38;;;1.75;;
61638;SDS011;47544;52.484;4.658;2023-09-30T00:43:40;6.60;;;1.70;;
61638;SDS011;47544;52.484;4.658;2023-09-30T00:43:51;6.97;;;1.65;;
61638;SDS011;47544;52.484;4.658;2023-09-30T00:44:02;7.18;;;1.88;;
61638;SDS011;47544;52.484;4.658;2023-09-30T00:44:14;7.40;;;1.98;;
61638;SDS011;47544;52.484;4.658;2023-09-30T00:44:25;7.22;;;2.00;;
61638;SDS011;47544;52.484;4.658;2023-09-30T00:44:37;7.45;;;1.92;;
61638;SDS011;47544;52.484;4.658;2023-09-30T00:44:48;7.88;;;2.08;;
61638;SDS011;47544;52.484;4.658;2023-09-30T00:44:59;7.68;;;2.20;;
61638;SDS011;47544;52.484;4.658;2023-09-30T00:45:10;6.68;;;2.00;;
61638;SDS011;47544;52.484;4.658;2023-09-30T00:45:21;6.00;;;1.77;;
61638;SDS011;47544;52.484;4.658;2023-09-30T00:45:32;6.97;;;1.70;;
61638;SDS011;47544;52.484;4.658;2023-09-30T00:45:44;7.10;;;1.73;;
61638;SDS011;47544;52.484;4.658;2023-09-30T00:46:00;8.35;;;1.90;;
61638;SDS011;47544;52.484;4.658;2023-09-30T00:46:17;7.57;;;1.88;;
61638;SDS011;47544;52.484;4.658;2023-09-30T00:46:29;7.22;;;1.80;;
61638;SDS011;47544;52.484;4.658;2023-09-30T00:46:40;7.82;;;1.63;;
61638;SDS011;47544;52.484;4.658;2023-09-30T00:46:52;7.50;;;1.60;;
61638;SDS011;47544;52.484;4.658;2023-09-30T00:47:04;6.85;;;1.52;;
61638;SDS011;47544;52.484;4.658;2023-09-30T00:47:15;6.63;;;1.58;;
61638;SDS011;47544;52.484;4.658;2023-09-30T00:47:27;7.63;;;1.60;;
61638;SDS011;47544;52.484;4.658;2023-09-30T00:47:38;7.28;;;1.60;;
61638;SDS011;47544;52.484;4.658;2023-09-30T00:47:53;6.22;;;1.70;;
61638;SDS011;47544;52.484;4.658;2023-09-30T00:48:05;5.90;;;1.60;;
61638;SDS011;47544;52.484;4.658;2023-09-30T00:48:17;5.15;;;1.40;;
61638;SDS011;47544;52.484;4.658;2023-09-30T00:48:28;6.28;;;1.60;;
61638;SDS011;47544;52.484;4.658;2023-09-30T00:48:39;6.50;;;1.70;;
61638;SDS011;47544;52.484;4.658;2023-09-30T00:48:50;6.60;;;1.63;;
61638;SDS011;47544;52.484;4.658;2023-09-30T00:49:01;6.63;;;1.55;;
61638;SDS011;47544;52.484;4.658;2023-09-30T00:49:13;7.25;;;1.70;;
61638;SDS011;47544;52.484;4.658;2023-09-30T00:49:25;7.22;;;1.80;;
61638;SDS011;47544;52.484;4.658;2023-09-30T00:49:36;6.95;;;1.80;;
61638;SDS011;47544;52.484;4.658;2023-09-30T00:49:48;8.25;;;1.75;;
61638;SDS011;47544;52.484;4.658;2023-09-30T00:49:59;8.23;;;1.80;;
61638;SDS011;47544;52.484;4.658;2023-09-30T00:50:11;7.53;;;1.80;;
61638;SDS011;47544;52.484;4.658;2023-09-30T00:50:24;7.82;;;1.80;;
61638;SDS011;47544;52.484;4.658;2023-09-30T00:50:35;7.50;;;1.77;;
61638;SDS011;47544;52.484;4.658;2023-09-30T00:50:46;6.57;;;1.60;;
61638;SDS011;47544;52.484;4.658;2023-09-30T00:50:57;6.20;;;1.67;;
61638;SDS011;47544;52.484;4.658;2023-09-30T00:51:09;7.20;;;1.58;;
61638;SDS011;47544;52.484;4.658;2023-09-30T00:51:21;8.38;;;1.80;;
61638;SDS011;47544;52.484;4.658;2023-09-30T00:51:32;8.02;;;1.65;;
61638;SDS011;47544;52.484;4.658;2023-09-30T00:51:43;5.82;;;1.48;;
61638;SDS011;47544;52.484;4.658;2023-09-30T00:51:55;6.03;;;1.30;;
61638;SDS011;47544;52.484;4.658;2023-09-30T00:52:06;5.40;;;1.30;;
61638;SDS011;47544;52.484;4.658;2023-09-30T00:52:19;6.03;;;1.40;;
61638;SDS011;47544;52.484;4.658;2023-09-30T00:52:31;5.78;;;1.50;;
61638;SDS011;47544;52.484;4.658;2023-09-30T00:52:42;5.93;;;1.40;;
61638;SDS011;47544;52.484;4.658;2023-09-30T00:52:54;6.45;;;1.35;;
61638;SDS011;47544;52.484;4.658;2023-09-30T00:53:05;6.72;;;1.45;;
61638;SDS011;47544;52.484;4.658;2023-09-30T00:53:16;7.40;;;1.55;;
61638;SDS011;47544;52.484;4.658;2023-09-30T00:53:27;6.60;;;1.50;;
61638;SDS011;47544;52.484;4.658;2023-09-30T00:53:39;6.05;;;1.33;;
61638;SDS011;47544;52.484;4.658;2023-09-30T00:53:51;5.35;;;1.23;;
61638;SDS011;47544;52.484;4.658;2023-09-30T00:54:02;7.93;;;1.45;;
61638;SDS011;47544;52.484;4.658;2023-09-30T00:54:14;8.85;;;1.58;;
61638;SDS011;47544;52.484;4.658;2023-09-30T00:54:26;6.88;;;1.33;;
61638;SDS011;47544;52.484;4.658;2023-09-30T00:54:37;4.93;;;1.08;;
61638;SDS011;47544;52.484;4.658;2023-09-30T00:54:49;5.70;;;1.27;;
61638;SDS011;47544;52.484;4.658;2023-09-30T00:55:01;6.18;;;1.30;;
61638;SDS011;47544;52.484;4.658;2023-09-30T00:55:13;5.32;;;1.20;;
61638;SDS011;47544;52.484;4.658;2023-09-30T00:55:27;4.75;;;1.30;;
61638;SDS011;47544;52.484;4.658;2023-09-30T00:55:38;5.88;;;1.50;;
61638;SDS011;47544;52.484;4.658;2023-09-30T00:55:49;6.10;;;1.42;;
61638;SDS011;47544;52.484;4.658;2023-09-30T00:56:01;6.07;;;1.23;;
61638;SDS011;47544;52.484;4.658;2023-09-30T00:56:13;6.90;;;1.55;;
61638;SDS011;47544;52.484;4.658;2023-09-30T00:56:25;5.50;;;1.30;;
61638;SDS011;47544;52.484;4.658;2023-09-30T00:56:37;5.70;;;1.35;;
61638;SDS011;47544;52.484;4.658;2023-09-30T00:56:52;6.95;;;1.58;;
61638;SDS011;47544;52.484;4.658;2023-09-30T00:57:07;8.55;;;1.80;;
61638;SDS011;47544;52.484;4.658;2023-09-30T00:57:19;6.85;;;1.60;;
61638;SDS011;47544;52.484;4.658;2023-09-30T00:57:31;5.70;;;1.50;;
61638;SDS011;47544;52.484;4.658;2023-09-30T00:57:42;5.88;;;1.42;;
61638;SDS011;47544;52.484;4.658;2023-09-30T00:57:54;5.30;;;1.40;;
61638;SDS011;47544;52.484;4.658;2023-09-30T00:58:06;6.05;;;1.50;;
61638;SDS011;47544;52.484;4.658;2023-09-30T00:58:17;7.28;;;1.73;;
61638;SDS011;47544;52.484;4.658;2023-09-30T00:58:28;8.55;;;1.88;;
61638;SDS011;47544;52.484;4.658;2023-09-30T00:58:41;7.90;;;1.75;;
61638;SDS011;47544;52.484;4.658;2023-09-30T00:58:52;7.72;;;1.60;;
61638;SDS011;47544;52.484;4.658;2023-09-30T00:59:04;8.23;;;1.60;;
61638;SDS011;47544;52.484;4.658;2023-09-30T00:59:16;7.75;;;1.50;;
61638;SDS011;47544;52.484;4.658;2023-09-30T00:59:28;6.07;;;1.42;;
61638;SDS011;47544;52.484;4.658;2023-09-30T00:59:41;5.00;;;1.50;;
61638;SDS011;47544;52.484;4.658;2023-09-30T00:59:52;6.20;;;1.58;;
61638;SDS011;47544;52.484;4.658;2023-09-30T01:00:09;6.38;;;1.40;;
61638;SDS011;47544;52.484;4.658;2023-09-30T01:00:22;6.95;;;1.30;;
61638;SDS011;47544;52.484;4.658;2023-09-30T01:00:36;6.72;;;1.30;;
61638;SDS011;47544;52.484;4.658;2023-09-30T01:00:47;5.57;;;1.20;;
61638;SDS011;47544;52.484;4.658;2023-09-30T01:01:00;4.95;;;1.20;;
61638;SDS011;47544;52.484;4.658;2023-09-30T01:01:11;7.15;;;1.55;;
61638;SDS011;47544;52.484;4.658;2023-09-30T01:01:22;8.25;;;1.70;;
61638;SDS011;47544;52.484;4.658;2023-09-30T01:01:35;7.45;;;1.70;;
61638;SDS011;47544;52.484;4.658;2023-09-30T01:01:47;5.35;;;1.40;;
61638;SDS011;47544;52.484;4.658;2023-09-30T01:01:58;5.13;;;1.30;;
61638;SDS011;47544;52.484;4.658;2023-09-30T01:02:10;6.00;;;1.30;;
61638;SDS011;47544;52.484;4.658;2023-09-30T01:02:21;6.60;;;1.30;;
61638;SDS011;47544;52.484;4.658;2023-09-30T01:02:33;7.40;;;1.35;;
61638;SDS011;47544;52.484;4.658;2023-09-30T01:02:48;6.78;;;1.30;;
61638;SDS011;47544;52.484;4.658;2023-09-30T01:03:00;5.65;;;1.30;;
61638;SDS011;47544;52.484;4.658;2023-09-30T01:03:14;5.50;;;1.50;;
61638;SDS011;47544;52.484;4.658;2023-09-30T01:03:25;6.32;;;1.50;;
61638;SDS011;47544;52.484;4.658;2023-09-30T01:03:37;6.60;;;1.50;;
61638;SDS011;47544;52.484;4.658;2023-09-30T01:03:51;6.57;;;1.50;;
61638;SDS011;47544;52.484;4.658;2023-09-30T01:04:02;6.40;;;1.40;;
61638;SDS011;47544;52.484;4.658;2023-09-30T01:04:13;6.03;;;1.40;;
61638;SDS011;47544;52.484;4.658;2023-09-30T01:04:25;6.15;;;1.35;;
61638;SDS011;47544;52.484;4.658;2023-09-30T01:04:37;6.43;;;1.40;;
61638;SDS011;47544;52.484;4.658;2023-09-30T01:04:51;6.28;;;1.40;;
61638;SDS011;47544;52.484;4.658;2023-09-30T01:05:04;5.47;;;1.35;;
61638;SDS011;47544;52.484;4.658;2023-09-30T01:05:16;6.32;;;1.50;;
61638;SDS011;47544;52.484;4.658;2023-09-30T01:05:27;7.30;;;1.70;;
61638;SDS011;47544;52.484;4.658;2023-09-30T01:05:38;7.47;;;1.67;;
61638;SDS011;47544;52.484;4.658;2023-09-30T01:05:49;6.72;;;1.58;;
61638;SDS011;47544;52.484;4.658;2023-09-30T01:06:00;6.75;;;1.40;;
61638;SDS011;47544;52.484;4.658;2023-09-30T01:06:11;7.18;;;1.30;;
61638;SDS011;47544;52.484;4.658;2023-09-30T01:06:22;7.10;;;1.33;;
61638;SDS011;47544;52.484;4.658;2023-09-30T01:06:34;6.88;;;1.58;;
61638;SDS011;47544;52.484;4.658;2023-09-30T01:06:45;6.45;;;1.52;;
61638;SDS011;47544;52.484;4.658;2023-09-30T01:06:58;6.75;;;1.40;;
61638;SDS011;47544;52.484;4.658;2023-09-30T01:07:09;6.15;;;1.33;;
61638;SDS011;47544;52.484;4.658;2023-09-30T01:07:20;5.70;;;1.23;;
61638;SDS011;47544;52.484;4.658;2023-09-30T01:07:35;6.03;;;1.40;;
61638;SDS011;47544;52.484;4.658;2023-09-30T01:07:46;6.28;;;1.45;;
61638;SDS011;47544;52.484;4.658;2023-09-30T01:07:57;7.15;;;1.60;;
61638;SDS011;47544;52.484;4.658;2023-09-30T01:08:08;5.88;;;1.40;;
61638;SDS011;47544;52.484;4.658;2023-09-30T01:08:19;5.68;;;1.45;;
61638;SDS011;47544;52.484;4.658;2023-09-30T01:08:31;5.57;;;1.50;;
61638;SDS011;47544;52.484;4.658;2023-09-30T01:08:45;6.78;;;1.60;;
61638;SDS011;47544;52.484;4.658;2023-09-30T01:08:57;6.60;;;1.67;;
61638;SDS011;47544;52.484;4.658;2023-09-30T01:09:10;6.00;;;1.70;;
61638;SDS011;47544;52.484;4.658;2023-09-30T01:09:23;5.78;;;1.50;;
61638;SDS011;47544;52.484;4.658;2023-09-30T01:09:34;6.63;;;1.42;;
61638;SDS011;47544;52.484;4.658;2023-09-30T01:09:47;6.22;;;1.40;;
61638;SDS011;47544;52.484;4.658;2023-09-30T01:09:58;6.28;;;1.30;;
61638;SDS011;47544;52.484;4.658;2023-09-30T01:10:10;6.10;;;1.40;;
61638;SDS011;47544;52.484;4.658;2023-09-30T01:10:21;6.05;;;1.52;;
61638;SDS011;47544;52.484;4.658;2023-09-30T01:10:32;6.05;;;1.65;;